createdAt,value
2023-03-26T00:05:32.250Z,5.95
2023-03-26T00:12:50.202Z,5.95
2023-03-26T00:20:09.436Z,6.68
2023-03-26T00:27:29.360Z,5.30
2023-03-26T00:34:52.139Z,3.38
2023-03-26T00:42:10.151Z,2.60
2023-03-26T00:49:30.793Z,4.97
2023-03-26T00:56:48.815Z,2.05
2023-03-26T01:04:24.293Z,2.45
2023-03-26T01:11:44.249Z,2.58
2023-03-26T01:19:02.370Z,2.55
2023-03-26T01:26:26.338Z,3.20
2023-03-26T01:33:48.269Z,3.95
2023-03-26T01:41:09.314Z,3.17
2023-03-26T01:48:33.052Z,3.22
2023-03-26T01:55:56.364Z,3.83
2023-03-26T02:03:19.011Z,4.85
2023-03-26T02:10:41.028Z,3.67
2023-03-26T02:18:02.144Z,4.25
2023-03-26T02:25:21.809Z,5.03
2023-03-26T02:32:43.949Z,3.42
2023-03-26T02:40:04.812Z,3.72
2023-03-26T02:47:23.584Z,7.88
2023-03-26T02:54:48.471Z,4.65
2023-03-26T03:02:13.486Z,6.38
2023-03-26T03:09:32.778Z,4.32
2023-03-26T03:17:14.696Z,5.03
2023-03-26T03:24:34.338Z,4.60
2023-03-26T03:31:52.884Z,4.47
2023-03-26T03:39:41.420Z,3.40
2023-03-26T03:47:00.784Z,4.47
2023-03-26T03:54:19.001Z,3.30
2023-03-26T04:01:38.359Z,4.57
2023-03-26T04:09:05.795Z,5.50
2023-03-26T04:16:24.928Z,3.80
2023-03-26T04:23:44.743Z,2.22
2023-03-26T04:31:17.128Z,3.10
2023-03-26T04:38:40.319Z,4.43
2023-03-26T04:46:02.997Z,1.63
2023-03-26T04:53:24.649Z,3.00
2023-03-26T05:00:47.616Z,4.40
2023-03-26T05:08:07.835Z,3.90
2023-03-26T05:15:26.320Z,4.53
2023-03-26T05:23:03.111Z,3.55
2023-03-26T05:30:29.839Z,4.85
2023-03-26T05:37:51.603Z,3.45
2023-03-26T05:45:15.841Z,2.08
2023-03-26T05:52:35.662Z,2.50
2023-03-26T06:00:27.850Z,3.30
2023-03-26T06:07:48.623Z,2.10
2023-03-26T06:15:10.639Z,4.30
2023-03-26T06:22:38.842Z,3.65
2023-03-26T06:30:12.804Z,1.65
2023-03-26T06:37:44.190Z,1.85
2023-03-26T06:45:02.302Z,4.25
2023-03-26T06:52:28.787Z,1.60
2023-03-26T07:00:14.044Z,3.88
2023-03-26T07:07:52.236Z,4.03
2023-03-26T07:15:32.696Z,3.22
2023-03-26T07:23:31.116Z,2.30
2023-03-26T07:31:15.928Z,2.22
2023-03-26T07:38:48.758Z,2.37
2023-03-26T07:46:26.134Z,1.90
2023-03-26T07:54:04.642Z,3.92
2023-03-26T08:01:43.516Z,4.55
2023-03-26T08:09:12.833Z,6.13
2023-03-26T08:17:03.240Z,4.10
2023-03-26T08:24:25.113Z,1.90
2023-03-26T08:31:44.709Z,3.10
2023-03-26T08:39:02.655Z,2.50
2023-03-26T08:46:30.466Z,1.92
2023-03-26T08:54:09.383Z,1.85
2023-03-26T09:01:48.137Z,2.50
2023-03-26T09:09:39.125Z,1.77
2023-03-26T09:17:15.989Z,4.80
2023-03-26T09:24:58.263Z,4.97
2023-03-26T09:32:31.958Z,4.88
2023-03-26T09:40:00.953Z,2.80
2023-03-26T09:47:42.918Z,4.90
2023-03-26T09:55:22.788Z,4.30
2023-03-26T10:02:54.586Z,2.35
2023-03-26T10:10:16.767Z,2.13
2023-03-26T10:17:42.397Z,2.60
2023-03-26T10:25:19.423Z,4.63
2023-03-26T10:32:45.888Z,3.53
2023-03-26T10:40:22.518Z,7.85
2023-03-26T10:47:53.354Z,4.65
2023-03-26T10:55:15.902Z,2.88
2023-03-26T11:02:39.779Z,6.72
2023-03-26T11:10:02.015Z,4.53
2023-03-26T11:17:39.213Z,6.18
2023-03-26T11:25:10.322Z,6.50
2023-03-26T11:32:33.450Z,3.17
2023-03-26T11:39:54.494Z,4.30
2023-03-26T11:47:19.064Z,9.23
2023-03-26T11:54:37.125Z,2.97
2023-03-26T12:01:58.060Z,5.55
2023-03-26T12:09:21.210Z,5.05
2023-03-26T12:16:57.819Z,33.03
2023-03-26T12:24:31.184Z,3.65
2023-03-26T12:31:55.952Z,9.10
2023-03-26T12:40:07.208Z,2.50
2023-03-26T12:47:57.412Z,5.90
2023-03-26T12:54:54.871Z,1.77
2023-03-26T13:02:29.783Z,3.00
2023-03-26T13:09:55.712Z,6.53
2023-03-26T13:17:19.255Z,4.60
2023-03-26T13:32:01.408Z,5.50
2023-03-26T13:39:23.584Z,3.25
2023-03-26T13:46:42.976Z,3.17
2023-03-26T13:54:04.230Z,3.85
2023-03-26T14:01:24.192Z,3.17
2023-03-26T14:08:43.790Z,3.85
2023-03-26T14:16:07.650Z,4.90
2023-03-26T14:23:54.644Z,12.32
2023-03-26T14:31:23.995Z,3.72
2023-03-26T14:38:59.483Z,2.83
2023-03-26T14:46:31.469Z,3.85
2023-03-26T14:53:50.855Z,4.00
2023-03-26T15:01:22.658Z,4.90
2023-03-26T15:09:13.937Z,3.17
2023-03-26T15:17:00.773Z,4.35
2023-03-26T15:24:33.792Z,3.40
2023-03-26T15:32:06.711Z,5.87
2023-03-26T15:39:38.224Z,21.33
2023-03-26T15:46:59.287Z,5.38
2023-03-26T15:54:23.053Z,13.88
2023-03-26T16:01:56.182Z,7.28
2023-03-26T16:09:29.354Z,4.80
2023-03-26T16:16:57.690Z,4.47
2023-03-26T16:24:20.916Z,7.03
2023-03-26T16:31:57.736Z,5.65
2023-03-26T16:39:23.027Z,8.02
2023-03-26T16:46:45.975Z,11.07
2023-03-26T16:54:10.497Z,4.67
2023-03-26T17:01:35.687Z,4.25
2023-03-26T17:09:00.198Z,3.92
2023-03-26T17:16:22.883Z,18.80
2023-03-26T17:23:53.419Z,7.17
2023-03-26T17:31:17.847Z,13.13
2023-03-26T17:38:58.950Z,8.20
2023-03-26T17:46:35.004Z,8.43
2023-03-26T17:53:53.708Z,15.15
2023-03-26T18:01:18.662Z,14.23
2023-03-26T18:08:46.123Z,14.77
2023-03-26T18:16:10.792Z,11.52
2023-03-26T18:23:37.445Z,15.10
2023-03-26T18:31:08.702Z,14.52
2023-03-26T18:38:35.679Z,18.80
2023-03-26T18:45:57.890Z,16.00
2023-03-26T18:53:18.473Z,18.90
2023-03-26T19:00:37.334Z,20.25
2023-03-26T19:07:58.161Z,20.40
2023-03-26T19:15:17.062Z,12.48
2023-03-26T19:22:35.350Z,12.00
2023-03-26T19:29:55.079Z,13.45
2023-03-26T19:37:31.342Z,13.43
2023-03-26T19:44:50.138Z,10.40
2023-03-26T19:52:17.636Z,7.15
2023-03-26T19:59:35.754Z,6.90
2023-03-26T20:06:54.069Z,9.82
2023-03-26T20:14:29.540Z,52.13
2023-03-26T20:21:52.931Z,32.85
2023-03-26T20:36:35.615Z,15.48
2023-03-26T20:43:58.500Z,18.10
2023-03-26T20:51:19.895Z,19.88
2023-03-26T20:58:42.426Z,19.33
2023-03-26T21:06:21.696Z,18.47
2023-03-26T21:13:51.192Z,32.05
2023-03-26T21:21:23.804Z,30.23
2023-03-26T21:28:45.646Z,22.83
2023-03-26T21:36:04.691Z,19.35
2023-03-26T21:43:24.933Z,19.48
2023-03-26T21:50:43.572Z,14.55
2023-03-26T21:58:14.120Z,11.07
2023-03-26T22:05:39.097Z,9.73
2023-03-26T22:12:57.224Z,22.73
2023-03-26T22:20:16.234Z,20.35
2023-03-26T22:27:44.155Z,17.48
2023-03-26T22:35:04.295Z,13.23
2023-03-26T22:42:24.205Z,13.45
2023-03-26T22:49:43.819Z,18.60
2023-03-26T22:57:01.867Z,14.20
2023-03-26T23:04:31.588Z,10.18
2023-03-26T23:11:51.994Z,9.90
2023-03-26T23:19:10.097Z,8.65
2023-03-26T23:26:34.969Z,9.40
2023-03-26T23:33:57.693Z,8.43
2023-03-26T23:41:16.476Z,10.95
2023-03-26T23:48:34.797Z,12.75
2023-03-26T23:55:54.686Z,8.20
